Kathy C — 2CTI7 — position and weather

sailwx.info

Track history (hours):
 
Tides and Currents Weather Stations Pressure Air Temp Water Temp Dewpoint Dewpoint Depression Visibility Wind Speed Wind Dir Waves Ship Positions

Kathy C

Last reported at 2014-Jul-22 23:10 UTC. Time now 2014-Jul-23 05:47 UTC.
Position N 43°01' E 003°03'.

Length 106 m; draft 6.4 m.

Type: Cargo ship. MMSI: 235075591.

Date/timePositionNaut miles runAvg speedWind from/ knotsBaromVisibWave heightAir tempDewpointWater temp
2014-Jul-22 23:10N 43°01' E 003°03'0 0.0
2014-Jul-22 12:15N 43°01' E 003°03'0 0.0
2014-Jul-22 10:31N 43°01' E 003°03'0 0.0
2014-Jul-22 08:24N 43°01' E 003°03'0 0.0
2014-Jul-22 07:27N 43°01' E 003°03'0 0.0
2014-Jul-21 20:16N 43°01' E 003°03'0 0.0
2014-Jul-21 19:34N 43°01' E 003°03'0 0.0
2014-Jul-21 18:34N 43°01' E 003°03'0 0.0
2014-Jul-21 17:30N 43°01' E 003°03'0 0.0
2014-Jul-21 13:34N 43°01' E 003°03'0 0.0
2014-Jul-21 09:25N 43°01' E 003°03'0 0.0
2014-Jul-21 07:19N 43°01' E 003°03'0 0.0
2014-Jul-21 06:12N 43°01' E 003°03'0 0.0
2014-Jul-21 04:32N 43°01' E 003°03'0 0.0
2014-Jul-21 02:14N 43°01' E 003°03'0 0.0
2014-Jul-21 01:32N 43°01' E 003°03'0 0.0
2014-Jul-20 23:26N 43°01' E 003°03'0 0.0
2014-Jul-20 22:32N 43°01' E 003°03'0 0.0
2014-Jul-20 21:21N 43°01' E 003°03'0 0.0
2014-Jul-20 20:27N 43°01' E 003°03'0 0.0
2014-Jul-20 19:29N 43°01' E 003°03'5 0.8
2014-Jul-20 13:33N 42°60' E 003°09'1010.3
2014-Jul-20 12:33N 42°53' E 003°20'20 9.9
2014-Jul-20 10:31N 42°38' E 003°38'9 9.2
2014-Jul-20 09:33N 42°31' E 003°46'20 9.8
2014-Jul-20 07:33N 42°16' E 004°03'1110.8
2014-Jul-20 06:33N 42°08' E 004°13'1311.6
2014-Jul-20 05:25N 41°58' E 004°25'1110.8
2014-Jul-20 04:21N 41°50' E 004°35'1010.5
2014-Jul-20 03:22N 41°42' E 004°44'910.5
2014-Jul-20 02:33N 41°35' E 004°51'1111.3
2014-Jul-20 01:32N 41°28' E 005°03'11 9.2
2014-Jul-20 00:20N 41°18' E 005°11'810.1
2014-Jul-19 23:33N 41°12' E 005°17'1010.0
2014-Jul-19 22:33N 41°05' E 005°27'1310.2
2014-Jul-19 21:16N 40°55' E 005°38'710.0
2014-Jul-19 20:33N 40°50' E 005°44'1110.5
2014-Jul-19 19:33N 40°42' E 005°53'1010.3
2014-Jul-19 18:33N 40°34' E 006°02'1010.5
2014-Jul-19 17:33N 40°26' E 006°11'1110.5
2014-Jul-19 16:31N 40°18' E 006°21'1010.5
2014-Jul-19 15:32N 40°10' E 006°30'1210.8
2014-Jul-19 14:28N 40°02' E 006°40'1211.7
2014-Jul-19 13:28N 39°53' E 006°50'1010.3
2014-Jul-19 12:31N 39°45' E 006°58'1111.0
2014-Jul-19 11:32N 39°37' E 007°07'1111.1
2014-Jul-19 10:32N 39°29' E 007°17'  
Track history (hours):
 
Tides and Currents Weather Stations Pressure Air Temp Water Temp Dewpoint Dewpoint Depression Visibility Wind Speed Wind Dir Waves Ship Positions

Kathy C

Last reported at 2014-Jul-22 23:10 UTC. Time now 2014-Jul-23 05:47 UTC.
Position N 43°01' E 003°03'.

Length 106 m; draft 6.4 m.

Type: Cargo ship. MMSI: 235075591.

Date/timePositionNaut miles runAvg speedWind from/ knotsBaromVisibWave heightAir tempDewpointWater temp
2014-Jul-22 23:10N 43°01' E 003°03'0 0.0
2014-Jul-22 12:15N 43°01' E 003°03'0 0.0
2014-Jul-22 10:31N 43°01' E 003°03'0 0.0
2014-Jul-22 08:24N 43°01' E 003°03'0 0.0
2014-Jul-22 07:27N 43°01' E 003°03'0 0.0
2014-Jul-21 20:16N 43°01' E 003°03'0 0.0
2014-Jul-21 19:34N 43°01' E 003°03'0 0.0
2014-Jul-21 18:34N 43°01' E 003°03'0 0.0
2014-Jul-21 17:30N 43°01' E 003°03'0 0.0
2014-Jul-21 13:34N 43°01' E 003°03'0 0.0
2014-Jul-21 09:25N 43°01' E 003°03'0 0.0
2014-Jul-21 07:19N 43°01' E 003°03'0 0.0
2014-Jul-21 06:12N 43°01' E 003°03'0 0.0
2014-Jul-21 04:32N 43°01' E 003°03'0 0.0
2014-Jul-21 02:14N 43°01' E 003°03'0 0.0
2014-Jul-21 01:32N 43°01' E 003°03'0 0.0
2014-Jul-20 23:26N 43°01' E 003°03'0 0.0
2014-Jul-20 22:32N 43°01' E 003°03'0 0.0
2014-Jul-20 21:21N 43°01' E 003°03'0 0.0
2014-Jul-20 20:27N 43°01' E 003°03'0 0.0
2014-Jul-20 19:29N 43°01' E 003°03'5 0.8
2014-Jul-20 13:33N 42°60' E 003°09'1010.3
2014-Jul-20 12:33N 42°53' E 003°20'20 9.9
2014-Jul-20 10:31N 42°38' E 003°38'9 9.2
2014-Jul-20 09:33N 42°31' E 003°46'20 9.8
2014-Jul-20 07:33N 42°16' E 004°03'1110.8
2014-Jul-20 06:33N 42°08' E 004°13'1311.6
2014-Jul-20 05:25N 41°58' E 004°25'1110.8
2014-Jul-20 04:21N 41°50' E 004°35'1010.5
2014-Jul-20 03:22N 41°42' E 004°44'910.5
2014-Jul-20 02:33N 41°35' E 004°51'1111.3
2014-Jul-20 01:32N 41°28' E 005°03'11 9.2
2014-Jul-20 00:20N 41°18' E 005°11'810.1
2014-Jul-19 23:33N 41°12' E 005°17'1010.0
2014-Jul-19 22:33N 41°05' E 005°27'1310.2
2014-Jul-19 21:16N 40°55' E 005°38'710.0
2014-Jul-19 20:33N 40°50' E 005°44'1110.5
2014-Jul-19 19:33N 40°42' E 005°53'1010.3
2014-Jul-19 18:33N 40°34' E 006°02'1010.5
2014-Jul-19 17:33N 40°26' E 006°11'1110.5
2014-Jul-19 16:31N 40°18' E 006°21'1010.5
2014-Jul-19 15:32N 40°10' E 006°30'1210.8
2014-Jul-19 14:28N 40°02' E 006°40'1211.7
2014-Jul-19 13:28N 39°53' E 006°50'1010.3
2014-Jul-19 12:31N 39°45' E 006°58'1111.0
2014-Jul-19 11:32N 39°37' E 007°07'1111.1
2014-Jul-19 10:32N 39°29' E 007°17'  

Dump ship's entire track history